This is the latest recevied weather packets stored in our database for station/object LRSB. If no packets are shown the sender has not sent any weather packets the latest 10 day(s).
| Time | Temp. | Humidity | Pressure | Rain* | Wind** | Luminosity | Snow |
|---|---|---|---|---|---|---|---|
| 1778027666 | 7.78° C | 76% | 1013 hPa | - | - | - | - |
| 1778026691 | 10° C | 67% | 1013 hPa | - | - | - | - |
| 1778025792 | 10° C | 67% | 1013 hPa | - | - | - | - |
| 1778024891 | 7.78° C | 82% | 1013 hPa | - | - | - | - |
| 1778023991 | 7.78° C | 82% | 1013 hPa | - | - | - | - |
| 1778023091 | 8.89° C | 82% | 1013 hPa | - | - | - | - |
| 1778022191 | 8.89° C | 82% | 1013 hPa | - | - | - | - |
| 1778021291 | 8.89° C | 71% | 1013 hPa | - | - | - | - |
| 1778020391 | 8.89° C | 71% | 1013 hPa | - | - | - | - |
| 1778019488 | 11.11° C | 62% | 1013 hPa | - | - | - | - |
| 1778018592 | 11.11° C | 62% | 1013 hPa | - | - | - | - |
| 1778017692 | 10° C | 71% | 1013 hPa | - | - | - | - |
| 1778016791 | 10° C | 71% | 1013 hPa | - | - | - | - |
| 1778015891 | 13.89° C | 48% | 1013 hPa | - | - | - | - |
| 1778014991 | 13.89° C | 48% | 1013 hPa | - | - | - | - |
| 1778014093 | 13.89° C | 55% | 1013 hPa | - | - | - | - |
| 1778013191 | 13.89° C | 55% | 1013 hPa | - | - | - | - |
| 1778012322 | 13.89° C | 55% | 1013 hPa | - | - | - | - |
| 1778011392 | 13.89° C | 55% | 1013 hPa | - | - | - | - |
| 1778010491 | 13.89° C | 55% | 1013 hPa | - | - | - | - |
| 1778009591 | 13.89° C | 55% | 1013 hPa | - | - | - | - |
| 1778008691 | 15° C | 51% | 1013 hPa | - | - | - | - |
| 1778007791 | 15° C | 51% | 1013 hPa | - | - | - | - |
| 1778006892 | 16.11° C | 48% | 1013 hPa | - | - | - | - |
| 1778005992 | 16.11° C | 48% | 1013 hPa | - | - | - | - |
* Rain since midnight (hover to see other rain measurements)
** Current wind speed in m/s (hover to see current wind gust speed)